Time;durP1;ratioP1;P1;durP2;ratioP2;P2;SDS_P1;SDS_P2;PMS_P1;PMS_P2;Temp;Humidity;BMP_temperature;BMP_pressure;BME280_temperature;BME280_humidity;BME280_pressure;Samples;Min_cycle;Max_cycle;Signal;HPM_P1;HPM_P2
2023/04/24 00:02:00;;;;;;;15.50;9.57;;;;;;;;;;5066825;28;20456;-57
2023/04/24 00:04:26;;;;;;;14.80;9.52;;;;;;;;;;5067119;28;20103;-58
2023/04/24 00:06:54;;;;;;;13.75;8.93;;;;;;;;;;5066647;28;20035;-58
2023/04/24 00:09:19;;;;;;;13.00;8.52;;;;;;;;;;5067089;28;20423;-60
2023/04/24 00:11:44;;;;;;;20.50;9.57;;;;;;;;;;5066664;28;20052;-56
2023/04/24 00:14:10;;;;;;;18.17;9.20;;;;;;;;;;5066832;28;20123;-58
2023/04/24 00:16:35;;;;;;;18.20;9.20;;;;;;;;;;5066668;28;20024;-59
2023/04/24 00:19:00;;;;;;;15.98;9.98;;;;;;;;;;5066797;28;20028;-59
2023/04/24 00:21:26;;;;;;;14.43;9.18;;;;;;;;;;5047326;28;20462;-59
2023/04/24 00:23:51;;;;;;;13.50;8.75;;;;;;;;;;5066578;28;20523;-58
2023/04/24 00:26:16;;;;;;;12.90;8.50;;;;;;;;;;5066980;28;20021;-58
2023/04/24 00:28:42;;;;;;;14.18;8.40;;;;;;;;;;5080801;28;20085;-59
2023/04/24 00:31:07;;;;;;;14.95;8.95;;;;;;;;;;5066496;28;20027;-59
2023/04/24 00:33:32;;;;;;;15.20;8.88;;;;;;;;;;5066196;28;20478;-58
2023/04/24 00:35:58;;;;;;;17.98;9.48;;;;;;;;;;5066066;28;20464;-57
2023/04/24 00:38:23;;;;;;;15.13;8.80;;;;;;;;;;5065904;28;20028;-58
2023/04/24 00:40:50;;;;;;;13.98;7.97;;;;;;;;;;5066343;28;20027;-59
2023/04/24 00:43:15;;;;;;;16.15;7.97;;;;;;;;;;5065873;28;20099;-59
2023/04/24 00:45:40;;;;;;;17.67;7.88;;;;;;;;;;5065815;28;20159;-58
2023/04/24 00:48:06;;;;;;;11.65;8.07;;;;;;;;;;5065941;28;20073;-58
2023/04/24 00:50:31;;;;;;;13.50;8.00;;;;;;;;;;5066191;28;20137;-58
2023/04/24 00:52:56;;;;;;;18.70;9.00;;;;;;;;;;5065318;28;20126;-59
2023/04/24 00:55:22;;;;;;;13.45;9.07;;;;;;;;;;5064374;28;20205;-57
2023/04/24 00:57:48;;;;;;;14.10;9.95;;;;;;;;;;5066089;28;20025;-59
2023/04/24 01:00:14;;;;;;;16.60;9.35;;;;;;;;;;5065943;28;20791;-59
2023/04/24 01:02:43;;;;;;;22.23;8.98;;;;;;;;;;5065749;28;20392;-59
2023/04/24 01:05:09;;;;;;;17.98;8.98;;;;;;;;;;5065643;28;20021;-55
2023/04/24 01:07:34;;;;;;;14.60;9.15;;;;;;;;;;5065566;28;20461;-57
2023/04/24 01:09:59;;;;;;;15.80;8.85;;;;;;;;;;5066052;28;20384;-57
2023/04/24 01:12:25;;;;;;;19.35;9.13;;;;;;;;;;5065580;28;20377;-58
2023/04/24 01:14:50;;;;;;;12.52;8.32;;;;;;;;;;5066069;28;20020;-58
2023/04/24 01:17:15;;;;;;;21.60;8.93;;;;;;;;;;5065972;28;20036;-58
2023/04/24 01:19:41;;;;;;;13.23;8.05;;;;;;;;;;5065749;28;20583;-57
2023/04/24 01:22:16;;;;;;;20.08;8.68;;;;;;;;;;5065641;28;20020;-59
2023/04/24 01:24:41;;;;;;;16.20;9.02;;;;;;;;;;5065532;28;20024;-60
2023/04/24 01:27:07;;;;;;;16.23;8.80;;;;;;;;;;5065398;28;20476;-57
2023/04/24 01:29:33;;;;;;;20.75;8.75;;;;;;;;;;5065735;28;20055;-58
2023/04/24 01:31:58;;;;;;;13.18;8.38;;;;;;;;;;5065961;28;20031;-58
2023/04/24 01:34:24;;;;;;;15.98;9.45;;;;;;;;;;5065997;28;20432;-58
2023/04/24 01:36:50;;;;;;;13.73;7.80;;;;;;;;;;5064939;28;20028;-59
2023/04/24 01:39:16;;;;;;;16.95;8.32;;;;;;;;;;5065998;28;20430;-59
2023/04/24 01:41:41;;;;;;;14.60;8.15;;;;;;;;;;5065673;28;20021;-59
2023/04/24 01:44:07;;;;;;;11.40;7.85;;;;;;;;;;5065919;28;20032;-59
2023/04/24 01:46:34;;;;;;;11.60;8.07;;;;;;;;;;5065517;28;20032;-56
2023/04/24 01:49:00;;;;;;;14.98;8.25;;;;;;;;;;5064612;28;20356;-58
2023/04/24 01:51:25;;;;;;;22.02;8.48;;;;;;;;;;5065856;28;20043;-57
2023/04/24 01:53:51;;;;;;;18.17;8.60;;;;;;;;;;5065782;28;20083;-57
2023/04/24 01:56:16;;;;;;;14.27;8.68;;;;;;;;;;5065954;28;20503;-58
2023/04/24 01:58:42;;;;;;;17.92;8.02;;;;;;;;;;5066053;28;20009;-57
2023/04/24 02:01:08;;;;;;;12.38;8.15;;;;;;;;;;5065948;28;20162;-57
2023/04/24 02:03:33;;;;;;;17.45;9.02;;;;;;;;;;5065626;28;20492;-59
2023/04/24 02:05:58;;;;;;;17.20;8.50;;;;;;;;;;5065603;28;20431;-57
2023/04/24 02:08:24;;;;;;;16.63;8.00;;;;;;;;;;5065277;28;20036;-60
2023/04/24 02:10:49;;;;;;;13.10;8.55;;;;;;;;;;5065303;28;20135;-59
2023/04/24 02:13:14;;;;;;;14.82;9.55;;;;;;;;;;5065499;28;20141;-59
2023/04/24 02:15:40;;;;;;;22.55;9.52;;;;;;;;;;5063255;28;20333;-58
2023/04/24 02:18:06;;;;;;;20.52;10.90;;;;;;;;;;5065071;28;20028;-58
2023/04/24 02:20:33;;;;;;;18.05;9.98;;;;;;;;;;5065253;28;20024;-59
2023/04/24 02:22:59;;;;;;;18.80;9.75;;;;;;;;;;5065393;28;20111;-56
2023/04/24 02:25:24;;;;;;;19.73;9.02;;;;;;;;;;5065277;28;20114;-59
2023/04/24 02:27:49;;;;;;;15.80;9.30;;;;;;;;;;5065385;28;20460;-58
2023/04/24 02:30:15;;;;;;;14.20;9.23;;;;;;;;;;5064873;28;20032;-55
2023/04/24 02:32:40;;;;;;;19.88;10.02;;;;;;;;;;5065261;28;20701;-59
2023/04/24 02:35:06;;;;;;;14.52;9.18;;;;;;;;;;5064774;28;20078;-59
2023/04/24 02:37:31;;;;;;;13.88;8.82;;;;;;;;;;5064869;28;20024;-59
2023/04/24 02:39:56;;;;;;;15.65;9.63;;;;;;;;;;5064645;28;20529;-60
2023/04/24 02:42:22;;;;;;;11.07;8.50;;;;;;;;;;5065298;28;20017;-60
2023/04/24 02:44:47;;;;;;;18.92;8.20;;;;;;;;;;5065475;28;20479;-55
2023/04/24 02:47:12;;;;;;;16.20;9.13;;;;;;;;;;5065085;28;20059;-60
2023/04/24 02:49:37;;;;;;;12.85;8.82;;;;;;;;;;5064770;28;20013;-56
2023/04/24 02:52:03;;;;;;;17.90;9.18;;;;;;;;;;5045585;28;20451;-58
2023/04/24 02:54:28;;;;;;;12.73;8.00;;;;;;;;;;5064757;28;20074;-60
2023/04/24 02:56:53;;;;;;;16.90;8.65;;;;;;;;;;5065214;28;20456;-57
2023/04/24 02:59:19;;;;;;;12.90;8.18;;;;;;;;;;5064719;28;20051;-59
2023/04/24 03:01:44;;;;;;;12.30;8.77;;;;;;;;;;5064203;28;20108;-59
2023/04/24 03:04:10;;;;;;;12.35;8.80;;;;;;;;;;5064802;28;20031;-58
2023/04/24 03:06:36;;;;;;;16.30;9.43;;;;;;;;;;5064536;28;20383;-59
2023/04/24 03:09:01;;;;;;;19.13;9.18;;;;;;;;;;5064667;28;20109;-60
2023/04/24 03:11:26;;;;;;;16.55;8.27;;;;;;;;;;5064456;28;20483;-59
2023/04/24 03:13:51;;;;;;;14.25;9.00;;;;;;;;;;5064834;28;20119;-60
2023/04/24 03:16:17;;;;;;;12.38;9.15;;;;;;;;;;5065437;28;20016;-58
2023/04/24 03:18:42;;;;;;;15.32;9.73;;;;;;;;;;5068449;28;20024;-59
2023/04/24 03:21:07;;;;;;;14.07;9.05;;;;;;;;;;5067792;28;20103;-59
2023/04/24 03:23:33;;;;;;;12.27;9.15;;;;;;;;;;5068304;28;20046;-59
2023/04/24 03:25:58;;;;;;;16.15;10.35;;;;;;;;;;5068320;28;20020;-58
2023/04/24 03:28:24;;;;;;;17.63;9.70;;;;;;;;;;5068214;28;20468;-60
2023/04/24 03:30:50;;;;;;;19.40;9.18;;;;;;;;;;5068173;28;20020;-58
2023/04/24 03:33:15;;;;;;;16.08;10.20;;;;;;;;;;5067981;28;20528;-57
2023/04/24 03:35:41;;;;;;;12.02;9.35;;;;;;;;;;5067497;28;20020;-57
2023/04/24 03:38:06;;;;;;;14.38;8.80;;;;;;;;;;5067649;28;20020;-60
2023/04/24 03:40:33;;;;;;;14.43;9.57;;;;;;;;;;5067407;28;20031;-56
2023/04/24 03:42:58;;;;;;;20.35;10.60;;;;;;;;;;5067526;28;20478;-60
2023/04/24 03:45:24;;;;;;;19.02;10.02;;;;;;;;;;5067999;28;20012;-57
2023/04/24 03:47:49;;;;;;;17.65;9.70;;;;;;;;;;5067648;28;20028;-59
2023/04/24 03:50:15;;;;;;;20.65;10.32;;;;;;;;;;5068040;28;20021;-58
2023/04/24 03:52:40;;;;;;;15.27;10.05;;;;;;;;;;5067667;28;20039;-58
2023/04/24 03:55:06;;;;;;;18.05;10.85;;;;;;;;;;5067274;28;20052;-55
2023/04/24 03:57:31;;;;;;;21.02;11.18;;;;;;;;;;5067354;28;20068;-58
2023/04/24 03:59:56;;;;;;;17.75;11.60;;;;;;;;;;5067390;28;20032;-57
2023/04/24 04:02:22;;;;;;;18.75;11.23;;;;;;;;;;5064805;28;20320;-58
2023/04/24 04:04:47;;;;;;;23.33;12.70;;;;;;;;;;5067090;28;20104;-58
2023/04/24 04:07:12;;;;;;;20.05;11.35;;;;;;;;;;5067293;28;20040;-57
2023/04/24 04:09:38;;;;;;;22.50;12.57;;;;;;;;;;5067106;28;20464;-59
2023/04/24 04:12:03;;;;;;;19.98;11.15;;;;;;;;;;5067115;28;20049;-60
2023/04/24 04:14:30;;;;;;;16.40;10.68;;;;;;;;;;5066952;28;20382;-58
2023/04/24 04:16:55;;;;;;;18.50;10.95;;;;;;;;;;5067106;28;20758;-59
2023/04/24 04:19:20;;;;;;;17.38;11.60;;;;;;;;;;5067093;28;20371;-59
2023/04/24 04:21:45;;;;;;;14.85;10.38;;;;;;;;;;5066797;28;20514;-59
2023/04/24 04:24:11;;;;;;;18.00;11.30;;;;;;;;;;5066878;28;20027;-56
2023/04/24 04:26:37;;;;;;;19.40;11.20;;;;;;;;;;5066608;28;20020;-59
2023/04/24 04:29:03;;;;;;;17.13;11.43;;;;;;;;;;5066861;28;20025;-59
2023/04/24 04:31:29;;;;;;;17.38;11.35;;;;;;;;;;5066886;28;20016;-59
2023/04/24 04:33:54;;;;;;;17.15;11.82;;;;;;;;;;5065141;28;20047;-58
2023/04/24 04:36:20;;;;;;;21.90;13.00;;;;;;;;;;5066590;28;20021;-57
2023/04/24 04:38:45;;;;;;;18.60;12.15;;;;;;;;;;5066893;28;20031;-59
2023/04/24 04:41:10;;;;;;;21.30;11.90;;;;;;;;;;5066702;28;20032;-58
2023/04/24 04:43:36;;;;;;;20.23;12.32;;;;;;;;;;5066634;28;20024;-55
2023/04/24 04:46:03;;;;;;;19.05;12.38;;;;;;;;;;5066701;28;20598;-58
2023/04/24 04:48:28;;;;;;;21.92;12.93;;;;;;;;;;5066544;28;20028;-57
2023/04/24 04:50:53;;;;;;;22.55;12.88;;;;;;;;;;5066434;28;20535;-58
2023/04/24 04:53:19;;;;;;;24.63;12.95;;;;;;;;;;5066486;28;20078;-56
2023/04/24 04:55:45;;;;;;;26.95;14.00;;;;;;;;;;5066593;28;20025;-59
2023/04/24 04:58:10;;;;;;;22.30;13.40;;;;;;;;;;5066176;28;20066;-59
2023/04/24 05:00:37;;;;;;;28.85;13.48;;;;;;;;;;5066531;28;20066;-59
2023/04/24 05:03:02;;;;;;;20.63;12.25;;;;;;;;;;5066457;28;20577;-59
2023/04/24 05:05:28;;;;;;;18.08;11.73;;;;;;;;;;5066772;28;20103;-59
2023/04/24 05:07:53;;;;;;;20.02;12.27;;;;;;;;;;5065944;28;20252;-59
2023/04/24 05:10:18;;;;;;;24.65;12.15;;;;;;;;;;5066559;28;20410;-59
2023/04/24 05:12:44;;;;;;;17.20;10.82;;;;;;;;;;5063830;28;20417;-57
2023/04/24 05:15:09;;;;;;;19.95;10.85;;;;;;;;;;5065996;28;20036;-56
2023/04/24 05:17:35;;;;;;;16.23;11.18;;;;;;;;;;5065907;28;20036;-58
2023/04/24 05:20:00;;;;;;;20.02;10.68;;;;;;;;;;5065786;28;20408;-59
2023/04/24 05:22:25;;;;;;;23.88;10.75;;;;;;;;;;5065946;28;20020;-59
2023/04/24 05:24:51;;;;;;;17.23;10.63;;;;;;;;;;5065989;28;20425;-58
2023/04/24 05:27:16;;;;;;;14.13;9.45;;;;;;;;;;5065916;28;20127;-57
2023/04/24 05:29:41;;;;;;;17.63;10.82;;;;;;;;;;5066069;28;20024;-57
2023/04/24 05:32:07;;;;;;;20.77;10.48;;;;;;;;;;5065991;28;20123;-57
2023/04/24 05:34:32;;;;;;;21.13;12.68;;;;;;;;;;5065837;28;20103;-60
2023/04/24 05:36:57;;;;;;;17.33;10.27;;;;;;;;;;5065238;28;20031;-55
2023/04/24 05:39:24;;;;;;;20.02;9.93;;;;;;;;;;5065096;28;20021;-58
2023/04/24 05:41:50;;;;;;;21.55;10.57;;;;;;;;;;5081957;28;20031;-60
2023/04/24 05:44:15;;;;;;;21.05;11.32;;;;;;;;;;5088244;28;20028;-57
2023/04/24 05:46:40;;;;;;;21.88;11.32;;;;;;;;;;5086915;28;20368;-59
2023/04/24 05:49:06;;;;;;;16.38;10.27;;;;;;;;;;5085041;28;20103;-54
2023/04/24 05:51:31;;;;;;;17.30;10.50;;;;;;;;;;5086164;28;20112;-59
2023/04/24 05:53:57;;;;;;;13.25;9.70;;;;;;;;;;5083742;28;20447;-57
2023/04/24 05:56:22;;;;;;;17.60;9.98;;;;;;;;;;5075538;28;20142;-58
2023/04/24 05:58:47;;;;;;;21.83;10.13;;;;;;;;;;5085560;28;20028;-56
2023/04/24 06:01:14;;;;;;;17.17;10.55;;;;;;;;;;5080869;28;20102;-58
2023/04/24 06:03:40;;;;;;;16.75;9.68;;;;;;;;;;5089400;28;20013;-56
2023/04/24 06:06:05;;;;;;;21.05;11.02;;;;;;;;;;5084821;28;20020;-58
2023/04/24 06:08:31;;;;;;;19.27;10.45;;;;;;;;;;5084802;28;20475;-60
2023/04/24 06:10:56;;;;;;;22.20;10.93;;;;;;;;;;5090051;28;20127;-60
2023/04/24 06:13:21;;;;;;;19.98;11.00;;;;;;;;;;5079510;28;20031;-60
2023/04/24 06:15:46;;;;;;;18.35;10.88;;;;;;;;;;5088872;28;20031;-56
2023/04/24 06:18:12;;;;;;;13.13;9.98;;;;;;;;;;5085770;28;20078;-59
2023/04/24 06:20:37;;;;;;;20.92;12.02;;;;;;;;;;5089867;28;20012;-54
2023/04/24 06:23:03;;;;;;;20.55;10.60;;;;;;;;;;5082239;28;20048;-61
2023/04/24 06:25:28;;;;;;;17.00;9.40;;;;;;;;;;5083187;28;20031;-59
2023/04/24 06:27:54;;;;;;;16.42;11.52;;;;;;;;;;5082659;28;20032;-59
2023/04/24 06:30:19;;;;;;;15.45;12.52;;;;;;;;;;5075670;28;20028;-58
2023/04/24 06:32:44;;;;;;;18.40;10.25;;;;;;;;;;5067592;28;20107;-62
2023/04/24 06:35:11;;;;;;;17.20;10.65;;;;;;;;;;5076860;28;20728;-56
2023/04/24 06:37:36;;;;;;;19.38;11.27;;;;;;;;;;5084596;28;20052;-63
2023/04/24 06:40:02;;;;;;;19.10;11.23;;;;;;;;;;5084237;28;20105;-59
2023/04/24 06:42:27;;;;;;;20.33;12.40;;;;;;;;;;5079711;28;20624;-58
2023/04/24 06:44:53;;;;;;;18.67;11.25;;;;;;;;;;5081829;28;20016;-59
2023/04/24 06:48:02;;;;;;;17.50;11.75;;;;;;;;;;5039032;28;20131;-58
2023/04/24 06:50:27;;;;;;;17.33;11.27;;;;;;;;;;5018857;28;20039;-59
2023/04/24 06:52:53;;;;;;;22.45;12.85;;;;;;;;;;5048083;28;20038;-61
2023/04/24 06:55:18;;;;;;;25.05;13.13;;;;;;;;;;5023255;28;20454;-60
2023/04/24 06:57:44;;;;;;;29.77;12.55;;;;;;;;;;5016781;28;20030;-60
2023/04/24 07:00:10;;;;;;;20.27;12.98;;;;;;;;;;5011785;28;20025;-59
2023/04/24 07:02:35;;;;;;;18.33;11.95;;;;;;;;;;5019751;28;20029;-60
2023/04/24 07:05:01;;;;;;;19.20;12.45;;;;;;;;;;5029921;28;20029;-60
2023/04/24 07:07:27;;;;;;;24.25;13.15;;;;;;;;;;5031132;28;20023;-63
2023/04/24 07:09:53;;;;;;;20.42;11.98;;;;;;;;;;5026408;28;20020;-61
2023/04/24 07:12:20;;;;;;;22.33;12.90;;;;;;;;;;5046145;28;20144;-60
2023/04/24 07:14:46;;;;;;;20.00;12.68;;;;;;;;;;5037996;28;20345;-60
2023/04/24 07:17:13;;;;;;;21.27;13.35;;;;;;;;;;5019407;28;20686;-61
2023/04/24 07:19:38;;;;;;;20.73;13.77;;;;;;;;;;5015442;28;20025;-61
2023/04/24 07:22:03;;;;;;;20.15;13.95;;;;;;;;;;5013426;28;20087;-60
2023/04/24 07:24:29;;;;;;;23.13;13.10;;;;;;;;;;5013288;28;20510;-61
2023/04/24 07:26:54;;;;;;;24.45;15.20;;;;;;;;;;5032749;28;20108;-60
2023/04/24 07:29:20;;;;;;;22.23;12.82;;;;;;;;;;5019290;28;20125;-56
2023/04/24 07:31:46;;;;;;;21.13;14.25;;;;;;;;;;5010127;28;20086;-55
2023/04/24 07:34:11;;;;;;;21.00;13.27;;;;;;;;;;5041904;28;20053;-61
2023/04/24 07:36:38;;;;;;;20.30;13.00;;;;;;;;;;5006398;28;20119;-54
2023/04/24 07:39:03;;;;;;;19.52;12.35;;;;;;;;;;5004009;28;20029;-57
2023/04/24 07:41:29;;;;;;;24.85;13.40;;;;;;;;;;5016533;28;20891;-57
2023/04/24 07:43:54;;;;;;;21.58;12.65;;;;;;;;;;5004114;28;20690;-60
2023/04/24 07:46:20;;;;;;;21.38;13.07;;;;;;;;;;5007222;28;20057;-63
2023/04/24 07:48:46;;;;;;;23.45;13.65;;;;;;;;;;5013645;28;20446;-61
2023/04/24 07:51:13;;;;;;;22.17;13.77;;;;;;;;;;5024911;28;20393;-54
2023/04/24 07:53:38;;;;;;;26.80;15.73;;;;;;;;;;5008247;28;20018;-56
2023/04/24 07:56:04;;;;;;;23.98;15.30;;;;;;;;;;5019514;28;20028;-54
2023/04/24 07:58:29;;;;;;;23.02;14.57;;;;;;;;;;5007465;28;20030;-58
2023/04/24 08:00:54;;;;;;;24.08;15.20;;;;;;;;;;5003977;28;20533;-55
2023/04/24 08:03:20;;;;;;;26.75;15.30;;;;;;;;;;5009575;28;20044;-54
2023/04/24 08:05:45;;;;;;;24.17;15.30;;;;;;;;;;5009772;28;20753;-55
2023/04/24 08:08:11;;;;;;;27.17;15.45;;;;;;;;;;5003433;28;20018;-54
2023/04/24 08:10:36;;;;;;;21.05;14.68;;;;;;;;;;4994609;28;20372;-55
2023/04/24 08:13:02;;;;;;;22.98;15.48;;;;;;;;;;4998377;28;20033;-56
2023/04/24 08:15:27;;;;;;;21.58;15.02;;;;;;;;;;4993221;28;20018;-57
2023/04/24 08:17:53;;;;;;;33.22;15.73;;;;;;;;;;5048781;28;20455;-57
2023/04/24 08:20:18;;;;;;;22.98;15.48;;;;;;;;;;5013200;28;20192;-57
2023/04/24 08:22:44;;;;;;;23.70;15.52;;;;;;;;;;4996490;28;20058;-60
2023/04/24 08:25:10;;;;;;;25.65;15.32;;;;;;;;;;4992101;28;20612;-59
2023/04/24 08:27:39;;;;;;;25.65;16.27;;;;;;;;;;5020982;28;20037;-59
2023/04/24 08:30:05;;;;;;;23.60;15.73;;;;;;;;;;5005313;28;20370;-58
2023/04/24 08:32:30;;;;;;;21.58;14.52;;;;;;;;;;5005141;28;20038;-52
2023/04/24 08:34:56;;;;;;;25.45;14.82;;;;;;;;;;5005857;28;20100;-52
2023/04/24 08:37:22;;;;;;;19.88;13.07;;;;;;;;;;5001541;28;20061;-50
2023/04/24 08:39:47;;;;;;;19.52;13.68;;;;;;;;;;5006655;28;20026;-51
2023/04/24 08:42:12;;;;;;;18.15;11.68;;;;;;;;;;5003026;28;20026;-52
2023/04/24 08:44:38;;;;;;;20.85;13.50;;;;;;;;;;4997287;28;20536;-54
2023/04/24 08:47:04;;;;;;;23.42;11.43;;;;;;;;;;5006061;28;20050;-53
2023/04/24 08:49:29;;;;;;;22.23;12.13;;;;;;;;;;5001532;28;20386;-53
2023/04/24 08:51:55;;;;;;;22.77;12.70;;;;;;;;;;4997977;28;20486;-54
2023/04/24 08:54:20;;;;;;;15.50;11.00;;;;;;;;;;5005664;28;20030;-57
2023/04/24 08:56:47;;;;;;;17.55;11.05;;;;;;;;;;5006085;28;20029;-53
2023/04/24 08:59:13;;;;;;;20.58;12.02;;;;;;;;;;5003517;28;20026;-57
2023/04/24 09:01:39;;;;;;;21.63;12.43;;;;;;;;;;5006454;28;20032;-53
2023/04/24 09:04:06;;;;;;;18.52;12.77;;;;;;;;;;5006457;28;20037;-55
2023/04/24 09:06:32;;;;;;;22.33;11.93;;;;;;;;;;4999162;28;20038;-51
2023/04/24 09:09:00;;;;;;;15.27;11.45;;;;;;;;;;4997208;28;20030;-56
2023/04/24 09:11:26;;;;;;;17.38;11.77;;;;;;;;;;4999737;28;20022;-54
2023/04/24 09:13:51;;;;;;;16.23;11.38;;;;;;;;;;4987070;28;20030;-54
2023/04/24 09:16:17;;;;;;;19.73;10.77;;;;;;;;;;5005559;28;20061;-53
2023/04/24 09:18:42;;;;;;;18.02;10.55;;;;;;;;;;5006166;28;20056;-51
2023/04/24 09:21:08;;;;;;;14.20;9.27;;;;;;;;;;5005846;28;20017;-49
2023/04/24 09:23:34;;;;;;;16.10;8.93;;;;;;;;;;5007133;28;20034;-51
2023/04/24 09:26:01;;;;;;;14.77;9.02;;;;;;;;;;5002116;28;20029;-58
2023/04/24 09:28:30;;;;;;;14.70;8.18;;;;;;;;;;5005051;28;20397;-55
2023/04/24 09:31:05;;;;;;;13.15;7.28;;;;;;;;;;5005134;28;20064;-50
2023/04/24 09:33:31;;;;;;;9.38;5.88;;;;;;;;;;5005409;28;20553;-58
2023/04/24 09:35:56;;;;;;;12.43;6.10;;;;;;;;;;5004674;28;20097;-50
2023/04/24 09:38:30;;;;;;;12.27;6.05;;;;;;;;;;5011487;28;20029;-56
2023/04/24 09:40:58;;;;;;;10.57;6.90;;;;;;;;;;5005317;28;20030;-59
2023/04/24 09:43:26;;;;;;;13.60;6.90;;;;;;;;;;5006789;28;20645;-59
2023/04/24 09:45:55;;;;;;;12.60;7.90;;;;;;;;;;5004568;28;20034;-58
2023/04/24 09:48:20;;;;;;;18.83;7.97;;;;;;;;;;5013803;28;20026;-56
2023/04/24 09:50:47;;;;;;;12.88;8.30;;;;;;;;;;5004860;28;20025;-57
2023/04/24 09:53:12;;;;;;;15.88;8.45;;;;;;;;;;5005366;28;20018;-52
2023/04/24 09:55:44;;;;;;;12.85;7.85;;;;;;;;;;5006079;28;20482;-57
2023/04/24 09:58:10;;;;;;;10.43;6.95;;;;;;;;;;5005576;28;20028;-57
2023/04/24 10:00:35;;;;;;;12.43;6.50;;;;;;;;;;5010361;28;20022;-58
2023/04/24 10:03:02;;;;;;;21.92;7.60;;;;;;;;;;5005554;28;20489;-53
2023/04/24 10:05:28;;;;;;;10.32;6.80;;;;;;;;;;5004419;28;20056;-52
2023/04/24 10:07:58;;;;;;;13.65;6.85;;;;;;;;;;5019675;28;20037;-55
2023/04/24 10:10:23;;;;;;;9.10;7.38;;;;;;;;;;5007804;28;20476;-56
2023/04/24 10:12:48;;;;;;;12.13;7.50;;;;;;;;;;4995302;28;20110;-56
2023/04/24 10:15:16;;;;;;;11.48;6.97;;;;;;;;;;4985370;28;20022;-55
2023/04/24 10:17:42;;;;;;;11.68;6.88;;;;;;;;;;4984940;28;20117;-51
2023/04/24 10:20:08;;;;;;;10.15;6.32;;;;;;;;;;4999259;28;20429;-51
2023/04/24 10:22:33;;;;;;;10.25;6.32;;;;;;;;;;4999705;28;20040;-53
2023/04/24 10:24:58;;;;;;;15.32;6.53;;;;;;;;;;5000908;28;20088;-55
2023/04/24 10:27:24;;;;;;;8.48;5.97;;;;;;;;;;4997527;28;20092;-52
2023/04/24 10:29:51;;;;;;;12.13;6.07;;;;;;;;;;4997585;28;20485;-56
2023/04/24 10:32:16;;;;;;;14.02;6.55;;;;;;;;;;4997061;28;20420;-58
2023/04/24 10:34:42;;;;;;;11.02;6.68;;;;;;;;;;4996887;28;20390;-56
2023/04/24 10:37:07;;;;;;;13.70;7.20;;;;;;;;;;4987202;28;20021;-54
2023/04/24 10:39:33;;;;;;;16.77;6.55;;;;;;;;;;4998135;28;20018;-52
2023/04/24 10:41:58;;;;;;;9.48;5.88;;;;;;;;;;5002764;28;20045;-56
2023/04/24 10:44:24;;;;;;;11.38;6.13;;;;;;;;;;4990500;28;20433;-56
2023/04/24 10:46:52;;;;;;;15.13;6.88;;;;;;;;;;4990658;28;20498;-53
2023/04/24 10:49:27;;;;;;;7.22;5.95;;;;;;;;;;5024400;28;20065;-51
2023/04/24 10:51:53;;;;;;;11.57;6.88;;;;;;;;;;4991387;28;20030;-54
2023/04/24 10:54:29;;;;;;;16.73;7.90;;;;;;;;;;4994536;28;20443;-54
2023/04/24 10:57:13;;;;;;;11.98;8.07;;;;;;;;;;4990685;28;20414;-52
2023/04/24 10:59:38;;;;;;;12.10;7.95;;;;;;;;;;4998919;28;20481;-54
2023/04/24 11:02:06;;;;;;;10.70;6.97;;;;;;;;;;4990241;28;20034;-53
2023/04/24 11:04:33;;;;;;;10.13;5.47;;;;;;;;;;4988489;28;20500;-49
2023/04/24 11:06:58;;;;;;;8.20;4.55;;;;;;;;;;4996849;28;20275;-53
2023/04/24 11:09:26;;;;;;;10.93;3.97;;;;;;;;;;4999032;28;20026;-55
2023/04/24 11:12:02;;;;;;;7.28;3.70;;;;;;;;;;4994870;28;20030;-55
2023/04/24 11:14:27;;;;;;;9.70;3.50;;;;;;;;;;4989515;28;20135;-56
2023/04/24 11:16:54;;;;;;;6.55;2.85;;;;;;;;;;5002057;28;20482;-53
2023/04/24 11:19:24;;;;;;;6.63;2.70;;;;;;;;;;4997342;28;20097;-56
2023/04/24 11:22:02;;;;;;;3.65;2.20;;;;;;;;;;5003390;28;20025;-54
2023/04/24 11:24:29;;;;;;;7.88;2.20;;;;;;;;;;4994470;28;20022;-54
2023/04/24 11:26:56;;;;;;;4.18;1.88;;;;;;;;;;5006649;28;20092;-54
2023/04/24 11:29:22;;;;;;;2.33;1.52;;;;;;;;;;4998614;28;20041;-54
2023/04/24 11:31:51;;;;;;;7.45;1.80;;;;;;;;;;4998246;28;20111;-53
2023/04/24 11:34:17;;;;;;;3.97;1.50;;;;;;;;;;4999534;28;20160;-53
2023/04/24 11:36:43;;;;;;;7.03;2.05;;;;;;;;;;4987759;28;20116;-50
2023/04/24 11:39:08;;;;;;;3.03;1.67;;;;;;;;;;4997002;28;20037;-52
2023/04/24 11:41:34;;;;;;;7.07;1.77;;;;;;;;;;5004042;28;20433;-55
2023/04/24 11:44:00;;;;;;;2.67;1.67;;;;;;;;;;5005906;28;20105;-57
2023/04/24 11:46:29;;;;;;;3.20;1.45;;;;;;;;;;5004348;28;20096;-54
2023/04/24 11:48:55;;;;;;;8.20;1.45;;;;;;;;;;5009282;28;20040;-54
2023/04/24 11:51:22;;;;;;;4.05;1.70;;;;;;;;;;5000013;28;20022;-54
2023/04/24 11:53:48;;;;;;;2.38;1.25;;;;;;;;;;4998594;28;20022;-52
2023/04/24 11:56:16;;;;;;;1.80;1.35;;;;;;;;;;5005114;28;20040;-56
2023/04/24 11:58:42;;;;;;;5.60;1.52;;;;;;;;;;4995286;28;20044;-55
2023/04/24 12:01:08;;;;;;;3.67;1.45;;;;;;;;;;5003661;28;20498;-56
2023/04/24 12:03:33;;;;;;;2.35;1.50;;;;;;;;;;4998901;28;20045;-53
2023/04/24 12:06:08;;;;;;;1.80;1.45;;;;;;;;;;4989363;28;20029;-54
2023/04/24 12:08:34;;;;;;;1.52;1.40;;;;;;;;;;4998871;28;20478;-56
2023/04/24 12:11:03;;;;;;;2.03;1.33;;;;;;;;;;5003731;28;20068;-52
2023/04/24 12:13:28;;;;;;;3.20;1.50;;;;;;;;;;5000884;28;20029;-53
2023/04/24 12:15:54;;;;;;;2.72;1.50;;;;;;;;;;4988854;28;20020;-49
2023/04/24 12:18:22;;;;;;;2.47;1.70;;;;;;;;;;4989249;28;20342;-57
2023/04/24 12:20:47;;;;;;;3.03;1.63;;;;;;;;;;4998054;28;20126;-54
2023/04/24 12:23:12;;;;;;;2.72;1.80;;;;;;;;;;4999696;28;20500;-55
2023/04/24 12:25:38;;;;;;;2.40;1.67;;;;;;;;;;4996654;28;20030;-57
2023/04/24 12:28:03;;;;;;;2.15;1.60;;;;;;;;;;4990309;28;20152;-58
2023/04/24 12:30:29;;;;;;;3.08;1.50;;;;;;;;;;4990689;28;20029;-57
2023/04/24 12:32:57;;;;;;;3.65;1.98;;;;;;;;;;4995270;28;20041;-57
2023/04/24 12:35:23;;;;;;;3.15;2.65;;;;;;;;;;5003010;28;20018;-58
2023/04/24 12:37:48;;;;;;;3.58;1.98;;;;;;;;;;5007602;28;20087;-57
2023/04/24 12:40:14;;;;;;;1.50;1.40;;;;;;;;;;4997059;28;20041;-59
2023/04/24 12:42:44;;;;;;;1.75;1.63;;;;;;;;;;4998666;28;20021;-60
2023/04/24 12:45:11;;;;;;;3.55;1.50;;;;;;;;;;4991948;28;20034;-57
2023/04/24 12:47:37;;;;;;;2.67;1.90;;;;;;;;;;5002791;28;20818;-54
2023/04/24 12:50:02;;;;;;;3.15;1.75;;;;;;;;;;4998698;28;20022;-56
2023/04/24 12:52:28;;;;;;;4.03;1.77;;;;;;;;;;4996773;28;20719;-62
2023/04/24 12:54:54;;;;;;;2.80;2.10;;;;;;;;;;4993781;28;20539;-61
2023/04/24 12:57:20;;;;;;;2.60;1.90;;;;;;;;;;4986853;28;20027;-57
2023/04/24 12:59:45;;;;;;;2.38;1.90;;;;;;;;;;4997207;28;20037;-57
2023/04/24 13:02:11;;;;;;;2.75;2.28;;;;;;;;;;4998106;28;20029;-57
2023/04/24 13:04:36;;;;;;;3.17;1.88;;;;;;;;;;5005186;28;20496;-55
2023/04/24 13:07:02;;;;;;;5.13;2.10;;;;;;;;;;5000125;28;20399;-59
2023/04/24 13:09:27;;;;;;;4.13;2.17;;;;;;;;;;5031157;28;20030;-56
2023/04/24 13:11:52;;;;;;;4.35;2.00;;;;;;;;;;5006629;28;20230;-60
2023/04/24 13:14:18;;;;;;;2.60;2.00;;;;;;;;;;4997377;28;20060;-59
2023/04/24 13:16:43;;;;;;;5.50;2.10;;;;;;;;;;5004407;28;20038;-57
2023/04/24 13:19:08;;;;;;;5.20;2.40;;;;;;;;;;5005481;28;20049;-57
2023/04/24 13:21:33;;;;;;;6.25;2.60;;;;;;;;;;4995022;28;20026;-57
2023/04/24 13:23:59;;;;;;;3.45;2.50;;;;;;;;;;5020856;28;20033;-59
2023/04/24 13:26:24;;;;;;;4.55;2.47;;;;;;;;;;5012550;28;21787;-59
2023/04/24 13:28:50;;;;;;;6.18;2.92;;;;;;;;;;5011401;28;20048;-58
2023/04/24 13:31:16;;;;;;;3.22;2.65;;;;;;;;;;5001203;28;20120;-55
2023/04/24 13:33:41;;;;;;;4.97;3.38;;;;;;;;;;4996425;28;20029;-58
2023/04/24 13:36:06;;;;;;;4.97;3.03;;;;;;;;;;4989563;28;20018;-60
2023/04/24 13:38:32;;;;;;;13.05;2.80;;;;;;;;;;4997124;28;20027;-58
2023/04/24 13:40:57;;;;;;;5.80;2.83;;;;;;;;;;4990709;28;20141;-57
2023/04/24 13:43:22;;;;;;;7.03;2.92;;;;;;;;;;4985553;28;20026;-57
2023/04/24 13:45:48;;;;;;;4.25;2.80;;;;;;;;;;4986461;28;20034;-59
2023/04/24 13:48:15;;;;;;;4.68;2.95;;;;;;;;;;4989208;28;20040;-55
2023/04/24 13:50:40;;;;;;;7.85;2.90;;;;;;;;;;5013293;28;20393;-58
2023/04/24 13:53:06;;;;;;;4.35;2.72;;;;;;;;;;5007460;28;20109;-61
2023/04/24 13:55:31;;;;;;;5.20;2.43;;;;;;;;;;5002906;28;20093;-54
2023/04/24 13:57:56;;;;;;;4.97;2.55;;;;;;;;;;4993504;28;20797;-59
2023/04/24 14:00:22;;;;;;;13.77;2.72;;;;;;;;;;5003902;28;20478;-61
2023/04/24 14:02:47;;;;;;;7.38;3.35;;;;;;;;;;5005405;28;20462;-58
2023/04/24 14:05:14;;;;;;;7.88;2.50;;;;;;;;;;5002789;28;20433;-58
2023/04/24 14:07:40;;;;;;;5.25;3.00;;;;;;;;;;5008952;28;20629;-54
2023/04/24 14:10:05;;;;;;;6.28;3.00;;;;;;;;;;4991967;28;20533;-57
2023/04/24 14:12:31;;;;;;;5.28;2.85;;;;;;;;;;5003305;28;20025;-57
2023/04/24 14:14:56;;;;;;;7.10;3.13;;;;;;;;;;5002253;28;20389;-54
2023/04/24 14:17:21;;;;;;;4.72;2.42;;;;;;;;;;4993349;28;20375;-59
2023/04/24 14:19:47;;;;;;;3.92;2.55;;;;;;;;;;5004312;28;20033;-55
2023/04/24 14:22:12;;;;;;;4.13;2.70;;;;;;;;;;5001901;28;20022;-57